THF weather

CLOSED Berlin-Tempelhof International Airport
Berlin, Berlin, Germany

Public forecast

Using degrees Celsius for public forecast. Weather courtesy of forecast.io.

METAR (pilot weather report)

Closest report is Berlin-Tegel Airport, 6.7 nm (12.4 km) NW. Retrieved 2019/05/25 20:20 UTC (24 minutes ago):

EDDT 252020Z 25006KT 9999 FEW038 11/06 Q1015 NOSIG

TAF (pilot weather forecast)

Closest forecast is Berlin-Tegel Airport, 6.7 nm (12.4 km) NW. Retrieved 2019/05/25 18:27 UTC (2 hours ago):

TAF EDDT 251700Z 2518/2618 30007KT CAVOK BECMG 2520/2523 23006KT BECMG 2608/2610 25015G25KT